createdAt,value
2017-08-07T00:01:37.794Z,99588.91
2017-08-07T00:04:10.625Z,99601.44
2017-08-07T00:06:43.922Z,99608.69
2017-08-07T00:09:17.107Z,99603.43
2017-08-07T00:11:49.738Z,99581.84
2017-08-07T00:14:22.000Z,99612.63
2017-08-07T00:16:59.102Z,99611.03
2017-08-07T00:19:31.733Z,99547.66
2017-08-07T00:22:04.276Z,99611.87
2017-08-07T00:24:36.714Z,99612.41
2017-08-07T00:27:12.232Z,99608.71
2017-08-07T00:29:45.002Z,99615.41
2017-08-07T00:32:17.616Z,99585.14
2017-08-07T00:34:50.001Z,99612.87
2017-08-07T00:37:22.727Z,99606.72
2017-08-07T00:39:58.226Z,99607.66
2017-08-07T00:42:31.563Z,99578.25
2017-08-07T00:45:07.358Z,99611.97
2017-08-07T00:47:40.503Z,99610.23
2017-08-07T00:50:14.481Z,99589.56
2017-08-07T00:52:47.292Z,99569.42
2017-08-07T00:55:19.595Z,99606.28
2017-08-07T00:57:51.731Z,99606.58
2017-08-07T01:00:24.976Z,99603.89
2017-08-07T01:03:03.157Z,99607.52
2017-08-07T01:05:35.509Z,99583.07
2017-08-07T01:08:08.434Z,99602.84
2017-08-07T01:10:40.508Z,99596.87
2017-08-07T01:13:14.919Z,99561.95
2017-08-07T01:15:47.662Z,99598.06
2017-08-07T01:18:20.161Z,99588.14
2017-08-07T01:20:56.141Z,99566.27
2017-08-07T01:23:28.718Z,99595.28
2017-08-07T01:26:02.663Z,99548.73
2017-08-07T01:28:37.006Z,99591.40
2017-08-07T01:31:09.454Z,99578.80
2017-08-07T01:33:42.819Z,99553.44
2017-08-07T01:36:15.808Z,99591.47
2017-08-07T01:38:49.020Z,99573.40
2017-08-07T01:41:21.882Z,99582.38
2017-08-07T01:44:00.122Z,99541.06
2017-08-07T01:46:33.945Z,99546.56
2017-08-07T01:49:07.049Z,99558.77
2017-08-07T01:51:39.891Z,99580.83
2017-08-07T01:54:12.420Z,99553.91
2017-08-07T01:56:45.017Z,99546.81
2017-08-07T01:59:18.061Z,99570.13
2017-08-07T02:01:51.133Z,99563.23
2017-08-07T02:04:24.495Z,99550.48
2017-08-07T02:07:00.891Z,99509.80
2017-08-07T02:09:33.970Z,99562.28
2017-08-07T02:12:06.055Z,99569.27
2017-08-07T02:14:38.377Z,99567.13
2017-08-07T02:17:10.718Z,99570.61
2017-08-07T02:19:44.005Z,99539.28
2017-08-07T02:22:16.530Z,99559.67
2017-08-07T02:24:49.822Z,99558.42
2017-08-07T02:27:23.463Z,99566.41
2017-08-07T02:29:59.499Z,99569.34
2017-08-07T02:32:33.115Z,99567.20
2017-08-07T02:35:06.186Z,99555.39
2017-08-07T02:37:39.552Z,99568.29
2017-08-07T02:40:11.782Z,99562.93
2017-08-07T02:42:45.205Z,99571.91
2017-08-07T02:45:17.822Z,99572.59
2017-08-07T02:47:50.414Z,99559.75
2017-08-07T02:50:23.318Z,99560.69
2017-08-07T02:52:59.194Z,99556.27
2017-08-07T02:55:31.720Z,99550.19
2017-08-07T02:58:04.000Z,99555.25
2017-08-07T03:00:36.317Z,99557.36
2017-08-07T03:03:08.834Z,99551.63
2017-08-07T03:05:41.989Z,99552.97
2017-08-07T03:08:14.039Z,99531.24
2017-08-07T03:10:47.087Z,99552.32
2017-08-07T03:13:20.242Z,99554.20
2017-08-07T03:15:52.667Z,99550.73
2017-08-07T03:18:26.365Z,99552.06
2017-08-07T03:21:01.641Z,99552.06
2017-08-07T03:23:33.735Z,99546.71
2017-08-07T03:26:06.273Z,99547.55
2017-08-07T03:28:38.911Z,99547.00
2017-08-07T03:31:11.636Z,99538.71
2017-08-07T03:33:44.390Z,99540.98
2017-08-07T03:36:17.144Z,99538.45
2017-08-07T03:38:49.995Z,99534.22
2017-08-07T03:41:22.712Z,99541.31
2017-08-07T03:43:57.422Z,99522.30
2017-08-07T03:46:29.886Z,99532.08
2017-08-07T03:49:03.254Z,99528.75
2017-08-07T03:51:36.245Z,99511.73
2017-08-07T03:54:08.579Z,99526.77
2017-08-07T03:56:40.737Z,99522.09
2017-08-07T03:59:13.431Z,99521.16
2017-08-07T04:01:46.364Z,99521.55
2017-08-07T04:04:18.819Z,99494.80
2017-08-07T04:06:51.244Z,99511.92
2017-08-07T04:09:23.268Z,99502.18
2017-08-07T04:11:58.443Z,99513.98
2017-08-07T04:14:30.400Z,99505.55
2017-08-07T04:17:02.750Z,99495.92
2017-08-07T04:19:36.428Z,99501.67
2017-08-07T04:22:09.248Z,99502.62
2017-08-07T04:24:42.080Z,99508.52
2017-08-07T04:27:14.562Z,99514.81
2017-08-07T04:29:47.097Z,99502.22
2017-08-07T04:32:19.726Z,99499.29
2017-08-07T04:34:52.338Z,99503.30
2017-08-07T04:37:26.741Z,99504.79
2017-08-07T04:40:00.222Z,99503.45
2017-08-07T04:42:32.674Z,99500.23
2017-08-07T04:45:05.326Z,99502.62
2017-08-07T04:47:38.739Z,99500.34
2017-08-07T04:50:11.860Z,99502.55
2017-08-07T04:52:44.374Z,99497.59
2017-08-07T04:55:16.560Z,99500.13
2017-08-07T04:57:50.757Z,99502.29
2017-08-07T05:00:23.230Z,99504.39
2017-08-07T05:02:57.108Z,99508.01
2017-08-07T05:05:29.622Z,99493.53
2017-08-07T05:08:02.980Z,99505.59
2017-08-07T05:10:36.716Z,99505.45
2017-08-07T05:13:09.843Z,99503.75
2017-08-07T05:15:42.378Z,99506.17
2017-08-07T05:18:14.391Z,99512.39
2017-08-07T05:20:46.872Z,99505.45
2017-08-07T05:23:19.834Z,99481.48
2017-08-07T05:25:52.748Z,99508.02
2017-08-07T05:28:28.110Z,99504.80
2017-08-07T05:31:01.262Z,99505.04
2017-08-07T05:33:34.639Z,99491.15
2017-08-07T05:36:07.396Z,99501.06
2017-08-07T05:38:40.004Z,99505.87
2017-08-07T05:41:12.890Z,99504.94
2017-08-07T05:43:46.835Z,99502.66
2017-08-07T05:46:19.938Z,99499.98
2017-08-07T05:48:54.574Z,99502.41
2017-08-07T05:51:27.867Z,99500.27
2017-08-07T05:54:01.246Z,99452.37
2017-08-07T05:56:34.005Z,99496.66
2017-08-07T05:59:06.915Z,99497.45
2017-08-07T06:01:39.690Z,99500.13
2017-08-07T06:04:11.785Z,99487.92
2017-08-07T06:06:43.929Z,99496.50
2017-08-07T06:09:17.396Z,99494.22
2017-08-07T06:11:50.966Z,99486.05
2017-08-07T06:14:23.409Z,99494.48
2017-08-07T06:16:57.403Z,99494.88
2017-08-07T06:19:29.829Z,99497.52
2017-08-07T06:22:03.029Z,99490.64
2017-08-07T06:24:36.048Z,99492.99
2017-08-07T06:27:09.655Z,99492.30
2017-08-07T06:29:42.977Z,99495.17
2017-08-07T06:32:16.677Z,99486.05
2017-08-07T06:34:50.288Z,99489.84
2017-08-07T06:37:23.182Z,99491.00
2017-08-07T06:40:08.091Z,99487.85
2017-08-07T06:42:40.645Z,99484.19
2017-08-07T06:45:13.730Z,99477.23
2017-08-07T06:47:46.776Z,99476.73
2017-08-07T06:50:20.239Z,99481.25
2017-08-07T06:52:52.608Z,99480.31
2017-08-07T06:55:26.993Z,99479.47
2017-08-07T06:58:02.251Z,99479.43
2017-08-07T07:00:35.390Z,99477.25
2017-08-07T07:03:07.790Z,99464.98
2017-08-07T07:05:39.847Z,99465.88
2017-08-07T07:08:11.987Z,99465.58
2017-08-07T07:10:44.156Z,99481.98
2017-08-07T07:13:16.468Z,99465.61
2017-08-07T07:15:49.384Z,99453.52
2017-08-07T07:18:28.280Z,99465.64
2017-08-07T07:21:01.770Z,99408.39
2017-08-07T07:23:38.478Z,99458.41
2017-08-07T07:26:11.668Z,99456.78
2017-08-07T07:28:43.985Z,99455.94
2017-08-07T07:31:18.629Z,99453.73
2017-08-07T07:33:51.956Z,99458.00
2017-08-07T07:36:27.909Z,99422.72
2017-08-07T07:39:01.907Z,99410.56
2017-08-07T07:41:35.719Z,99445.91
2017-08-07T07:44:09.539Z,99443.73
2017-08-07T07:46:42.437Z,99426.77
2017-08-07T07:49:17.752Z,99436.40
2017-08-07T07:51:50.798Z,99349.44
2017-08-07T07:54:25.415Z,99433.98
2017-08-07T07:57:01.015Z,99430.06
2017-08-07T07:59:34.926Z,99388.27
2017-08-07T08:02:08.818Z,99421.52
2017-08-07T08:04:44.835Z,99411.45
2017-08-07T08:07:17.101Z,99412.34
2017-08-07T08:09:49.453Z,99414.05
2017-08-07T08:12:25.803Z,99408.84
2017-08-07T08:15:00.291Z,99398.09
2017-08-07T08:17:33.066Z,99413.38
2017-08-07T08:20:05.474Z,99407.56
2017-08-07T08:22:37.828Z,99402.31
2017-08-07T08:25:11.948Z,99388.50
2017-08-07T08:27:43.994Z,99408.29
2017-08-07T08:30:17.822Z,99392.78
2017-08-07T08:32:49.797Z,99398.06
2017-08-07T08:35:21.853Z,99393.14
2017-08-07T08:37:57.036Z,99394.03
2017-08-07T08:40:29.703Z,99386.16
2017-08-07T08:43:02.705Z,99387.45
2017-08-07T08:45:36.104Z,99388.33
2017-08-07T08:48:08.667Z,99391.07
2017-08-07T08:50:41.445Z,99403.03
2017-08-07T08:53:14.482Z,99374.31
2017-08-07T08:55:48.102Z,99383.41
2017-08-07T08:58:21.882Z,99381.02
2017-08-07T09:01:34.229Z,99402.99
2017-08-07T09:04:06.949Z,99379.43
2017-08-07T09:06:40.007Z,99376.99
2017-08-07T09:09:13.800Z,99368.39
2017-08-07T09:11:49.235Z,99311.63
2017-08-07T09:14:24.716Z,99364.59
2017-08-07T09:17:01.773Z,99360.86
2017-08-07T09:19:34.456Z,99372.61
2017-08-07T09:22:07.327Z,99368.13
2017-08-07T09:24:41.157Z,99367.02
2017-08-07T09:27:14.128Z,99374.23
2017-08-07T09:29:46.658Z,99361.44
2017-08-07T09:35:28.418Z,99360.13
2017-08-07T09:38:03.149Z,99358.47
2017-08-07T09:40:36.050Z,99350.25
2017-08-07T09:43:08.057Z,99353.36
2017-08-07T09:45:40.539Z,99362.91
2017-08-07T09:48:12.804Z,99355.55
2017-08-07T09:50:45.513Z,99349.31
2017-08-07T09:53:18.247Z,99347.11
2017-08-07T09:55:50.438Z,99339.42
2017-08-07T09:58:22.988Z,99347.16
2017-08-07T10:00:59.545Z,99341.33
2017-08-07T10:03:32.065Z,99342.50
2017-08-07T10:06:04.261Z,99341.09
2017-08-07T10:09:08.153Z,99342.83
2017-08-07T10:11:40.749Z,99343.94
2017-08-07T10:14:13.723Z,99337.36
2017-08-07T10:16:46.191Z,99336.09
2017-08-07T10:19:18.956Z,99330.58
2017-08-07T10:21:51.026Z,99335.41
2017-08-07T10:24:23.156Z,99321.17
2017-08-07T10:26:58.003Z,99317.48
2017-08-07T10:29:30.741Z,99309.70
2017-08-07T10:32:03.440Z,99318.56
2017-08-07T10:34:38.478Z,99326.55
2017-08-07T10:37:12.191Z,99280.02
2017-08-07T10:39:44.944Z,99316.52
2017-08-07T10:42:18.384Z,99315.87
2017-08-07T10:44:51.190Z,99308.92
2017-08-07T10:47:24.066Z,99316.50
2017-08-07T10:49:58.450Z,99308.29
2017-08-07T10:52:30.456Z,99307.72
2017-08-07T10:55:02.532Z,99305.45
2017-08-07T10:57:34.431Z,99304.08
2017-08-07T11:00:07.207Z,99296.73
2017-08-07T11:02:39.824Z,99288.58
2017-08-07T11:05:12.397Z,99278.31
2017-08-07T11:07:44.886Z,99286.39
2017-08-07T11:10:20.731Z,99281.80
2017-08-07T11:12:53.271Z,99282.72
2017-08-07T11:15:33.427Z,99282.81
2017-08-07T11:18:09.298Z,99278.22
2017-08-07T11:20:42.731Z,99269.54
2017-08-07T11:23:14.883Z,99254.23
2017-08-07T11:25:46.893Z,99266.08
2017-08-07T11:28:19.639Z,99268.21
2017-08-07T11:30:51.848Z,99266.63
2017-08-07T11:33:24.451Z,99259.91
2017-08-07T11:35:59.352Z,99234.69
2017-08-07T11:38:31.815Z,99256.39
2017-08-07T11:41:04.004Z,99249.70
2017-08-07T11:43:37.074Z,99248.19
2017-08-07T11:46:10.083Z,99245.95
2017-08-07T11:48:43.225Z,99247.06
2017-08-07T11:51:15.897Z,99246.75
2017-08-07T11:53:48.034Z,99237.97
2017-08-07T11:56:20.051Z,99237.48
2017-08-07T11:58:52.635Z,99242.25
2017-08-07T12:02:21.122Z,99093.30
2017-08-07T12:05:19.894Z,99190.05
2017-08-07T12:08:21.258Z,99200.06
2017-08-07T12:11:20.991Z,99214.72
2017-08-07T12:13:59.320Z,99230.31
2017-08-07T12:16:31.832Z,99232.51
2017-08-07T12:19:04.106Z,99220.48
2017-08-07T12:21:36.429Z,99228.31
2017-08-07T12:24:12.001Z,99201.08
2017-08-07T12:26:50.605Z,99216.83
2017-08-07T12:29:23.150Z,99206.13
2017-08-07T12:32:01.984Z,99146.05
2017-08-07T12:34:41.114Z,99216.70
2017-08-07T12:37:25.753Z,99204.97
2017-08-07T12:40:13.583Z,99199.53
2017-08-07T12:42:52.506Z,99184.67
2017-08-07T12:45:42.766Z,99184.11
2017-08-07T12:48:51.595Z,99184.83
2017-08-07T12:51:30.759Z,99192.92
2017-08-07T12:54:15.141Z,99193.69
2017-08-07T12:56:47.548Z,99197.66
2017-08-07T12:59:20.537Z,99189.75
2017-08-07T13:01:57.126Z,99189.91
2017-08-07T13:04:29.613Z,99161.36
2017-08-07T13:07:02.164Z,99187.70
2017-08-07T13:09:35.642Z,99181.81
2017-08-07T13:12:08.672Z,99170.61
2017-08-07T13:14:41.054Z,99170.70
2017-08-07T13:17:14.100Z,99151.03
2017-08-07T13:19:46.822Z,99171.82
2017-08-07T13:22:19.595Z,99181.31
2017-08-07T13:24:59.296Z,99153.78
2017-08-07T13:27:31.893Z,99159.27
2017-08-07T13:30:04.894Z,99165.14
2017-08-07T13:32:37.578Z,99141.08
2017-08-07T13:35:10.716Z,99162.58
2017-08-07T13:37:43.479Z,99168.44
2017-08-07T13:40:17.110Z,99160.39
2017-08-07T13:42:51.787Z,99162.45
2017-08-07T13:45:24.179Z,99159.36
2017-08-07T13:47:59.443Z,99143.30
2017-08-07T13:50:31.752Z,99147.30
2017-08-07T13:53:04.564Z,99144.30
2017-08-07T13:55:38.248Z,99139.07
2017-08-07T13:58:18.969Z,99138.33
2017-08-07T14:00:51.774Z,99136.11
2017-08-07T14:03:26.045Z,99118.55
2017-08-07T14:06:02.745Z,99129.06
2017-08-07T14:08:35.190Z,99131.04
2017-08-07T14:11:09.142Z,99128.00
2017-08-07T14:13:41.526Z,99125.58
2017-08-07T14:16:13.514Z,99120.95
2017-08-07T14:18:46.062Z,99101.34
2017-08-07T14:21:18.682Z,99108.05
2017-08-07T14:23:51.574Z,99110.43
2017-08-07T14:26:25.103Z,99110.83
2017-08-07T14:29:00.978Z,99108.84
2017-08-07T14:31:33.901Z,99104.14
2017-08-07T14:34:07.112Z,99099.43
2017-08-07T14:36:39.771Z,99106.48
2017-08-07T14:39:12.849Z,99083.34
2017-08-07T14:44:29.563Z,99102.99
2017-08-07T14:47:02.653Z,99104.34
2017-08-07T14:49:35.140Z,99094.61
2017-08-07T14:52:08.140Z,99099.75
2017-08-07T14:54:41.014Z,99083.69
2017-08-07T14:57:13.375Z,99097.12
2017-08-07T14:59:48.256Z,99074.52
2017-08-07T15:02:22.674Z,99106.31
2017-08-07T15:04:57.964Z,99090.64
2017-08-07T15:07:30.702Z,99082.77
2017-08-07T15:10:03.363Z,99084.11
2017-08-07T15:12:36.441Z,99084.47
2017-08-07T15:15:08.995Z,99082.02
2017-08-07T15:17:41.981Z,99087.44
2017-08-07T15:20:21.389Z,99087.70
2017-08-07T15:26:50.677Z,99026.98
2017-08-07T15:34:49.512Z,99044.17
2017-08-07T15:41:17.203Z,99049.14
2017-08-07T15:43:59.337Z,99038.19
2017-08-07T15:50:35.764Z,98917.16
2017-08-07T15:53:11.572Z,99059.24
2017-08-07T15:55:44.617Z,99032.83
2017-08-07T15:58:18.083Z,99053.47
2017-08-07T16:00:50.718Z,99053.47
2017-08-07T16:03:23.045Z,99050.02
2017-08-07T16:05:57.806Z,99048.83
2017-08-07T16:08:30.297Z,99029.36
2017-08-07T16:11:02.655Z,99046.53
2017-08-07T16:13:35.005Z,99041.70
2017-08-07T16:16:07.017Z,99040.76
2017-08-07T16:18:39.777Z,99042.82
2017-08-07T16:21:12.752Z,99038.78
2017-08-07T16:23:44.973Z,99032.94
2017-08-07T16:26:17.425Z,99021.16
2017-08-07T16:28:49.446Z,99022.73
2017-08-07T16:37:50.607Z,98988.08
2017-08-07T16:41:33.519Z,98987.53
2017-08-07T16:50:57.834Z,98990.45
2017-08-07T16:53:43.289Z,98977.22
2017-08-07T16:59:34.399Z,98990.14
2017-08-07T17:03:00.009Z,98959.98
2017-08-07T17:06:00.072Z,98963.55
2017-08-07T17:09:09.438Z,98974.11
2017-08-07T17:12:15.497Z,99009.95
2017-08-07T17:22:09.100Z,98987.16
2017-08-07T17:28:14.943Z,98993.03
2017-08-07T17:31:20.973Z,98983.55
2017-08-07T17:34:16.083Z,98972.34
2017-08-07T17:44:47.662Z,98966.21
2017-08-07T17:47:40.219Z,98962.22
2017-08-07T17:58:34.908Z,98959.14
2017-08-07T18:01:07.522Z,98963.41
2017-08-07T18:03:43.124Z,98981.82
2017-08-07T18:06:15.982Z,98968.51
2017-08-07T18:08:48.752Z,98974.98
2017-08-07T18:11:22.310Z,98981.23
2017-08-07T18:13:57.491Z,98966.92
2017-08-07T18:16:31.162Z,98950.11
2017-08-07T18:19:03.516Z,98980.88
2017-08-07T18:21:35.741Z,98975.27
2017-08-07T18:24:08.430Z,98980.57
2017-08-07T18:26:41.167Z,98979.23
2017-08-07T18:29:13.681Z,98975.15
2017-08-07T18:31:45.826Z,98984.32
2017-08-07T18:34:18.358Z,98981.95
2017-08-07T18:39:32.741Z,98980.48
2017-08-07T18:42:13.008Z,98974.25
2017-08-07T18:45:08.082Z,98927.62
2017-08-07T18:47:42.299Z,98985.29
2017-08-07T18:50:17.080Z,98986.35
2017-08-07T18:52:49.245Z,98988.33
2017-08-07T18:55:21.815Z,98987.54
2017-08-07T18:57:57.628Z,98990.19
2017-08-07T19:00:29.953Z,98978.20
2017-08-07T19:03:02.788Z,98991.45
2017-08-07T19:05:35.031Z,98997.14
2017-08-07T19:08:07.712Z,98990.73
2017-08-07T19:10:40.263Z,98991.41
2017-08-07T19:13:15.091Z,98990.22
2017-08-07T19:15:48.013Z,98999.78
2017-08-07T19:18:21.364Z,98990.48
2017-08-07T19:20:56.165Z,98984.44
2017-08-07T19:23:29.885Z,98999.42
2017-08-07T19:26:03.648Z,98987.84
2017-08-07T19:28:36.069Z,98993.97
2017-08-07T19:31:08.779Z,98994.48
2017-08-07T19:33:45.033Z,98992.66
2017-08-07T19:36:18.473Z,98979.58
2017-08-07T19:38:50.939Z,98985.98
2017-08-07T19:41:24.391Z,98989.33
2017-08-07T19:43:56.570Z,98991.33
2017-08-07T19:46:29.716Z,98986.41
2017-08-07T19:49:02.892Z,98989.25
2017-08-07T19:51:36.536Z,98988.94
2017-08-07T19:54:10.207Z,98990.78
2017-08-07T19:57:03.164Z,98994.17
2017-08-07T19:59:39.589Z,98980.05
2017-08-07T20:02:11.921Z,98986.98
2017-08-07T20:04:44.743Z,98973.34
2017-08-07T20:07:17.510Z,98986.92
2017-08-07T20:09:50.917Z,98973.20
2017-08-07T20:12:23.186Z,98976.36
2017-08-07T20:14:57.412Z,98984.80
2017-08-07T20:17:29.570Z,98956.86
2017-08-07T20:20:02.535Z,98988.50
2017-08-07T20:22:34.936Z,98971.98
2017-08-07T20:25:07.414Z,98965.52
2017-08-07T20:27:39.705Z,98972.73
2017-08-07T20:30:12.501Z,98974.63
2017-08-07T20:32:45.125Z,98978.78
2017-08-07T20:35:20.178Z,98979.65
2017-08-07T20:37:52.916Z,98964.14
2017-08-07T20:40:25.779Z,98966.34
2017-08-07T20:42:58.397Z,98967.70
2017-08-07T20:45:30.686Z,98964.69
2017-08-07T20:48:03.628Z,98956.44
2017-08-07T20:50:36.796Z,98956.05
2017-08-07T20:53:09.041Z,98966.13
2017-08-07T20:55:41.585Z,98962.02
2017-08-07T20:58:14.071Z,98961.88
2017-08-07T21:00:46.591Z,98958.16
2017-08-07T21:03:19.187Z,98957.85
2017-08-07T21:05:51.499Z,98961.79
2017-08-07T21:08:24.111Z,98949.98
2017-08-07T21:10:58.654Z,98949.10
2017-08-07T21:13:30.786Z,98934.80
2017-08-07T21:16:03.343Z,98941.59
2017-08-07T21:18:35.501Z,98943.09
2017-08-07T21:21:08.430Z,98937.81
2017-08-07T21:23:40.811Z,98922.15
2017-08-07T21:26:13.348Z,98934.44
2017-08-07T21:28:46.778Z,98940.09
2017-08-07T21:31:19.117Z,98937.91
2017-08-07T21:33:51.556Z,98933.09
2017-08-07T21:36:23.673Z,98943.69
2017-08-07T21:39:04.570Z,98940.13
2017-08-07T21:41:37.178Z,98936.12
2017-08-07T21:44:09.674Z,98937.45
2017-08-07T21:46:44.440Z,98924.69
2017-08-07T21:49:16.954Z,98933.27
2017-08-07T21:51:49.112Z,98934.84
2017-08-07T21:54:21.930Z,98941.56
2017-08-07T21:57:25.773Z,98936.27
2017-08-07T22:00:02.172Z,98936.97
2017-08-07T22:02:35.148Z,98938.25
2017-08-07T22:05:10.037Z,98927.22
2017-08-07T22:07:42.198Z,98930.12
2017-08-07T22:10:14.879Z,98939.73
2017-08-07T22:12:46.833Z,98937.45
2017-08-07T22:15:19.281Z,98943.14
2017-08-07T22:17:51.578Z,98939.36
2017-08-07T22:20:27.658Z,98936.28
2017-08-07T22:23:01.992Z,98885.34
2017-08-07T22:25:35.012Z,98920.05
2017-08-07T22:28:07.366Z,98921.30
2017-08-07T22:30:39.439Z,98920.11
2017-08-07T22:33:11.455Z,98915.45
2017-08-07T22:35:43.650Z,98931.14
2017-08-07T22:38:16.321Z,98904.98
2017-08-07T22:40:49.573Z,98899.39
2017-08-07T22:43:21.904Z,98897.02
2017-08-07T22:45:57.666Z,98896.48
2017-08-07T22:48:29.954Z,98882.92
2017-08-07T22:51:02.174Z,98864.05
2017-08-07T22:53:34.749Z,98885.12
2017-08-07T22:56:08.084Z,98881.15
2017-08-07T22:58:40.770Z,98889.36
2017-08-07T23:01:13.869Z,98883.90
2017-08-07T23:03:46.266Z,98887.70
2017-08-07T23:06:18.276Z,98884.00
2017-08-07T23:08:50.888Z,98872.02
2017-08-07T23:11:23.387Z,98890.54
2017-08-07T23:13:57.615Z,98886.19
2017-08-07T23:16:30.022Z,98874.45
2017-08-07T23:19:02.234Z,98877.61
2017-08-07T23:21:34.981Z,98882.42
2017-08-07T23:24:07.359Z,98873.67
2017-08-07T23:26:39.281Z,98873.75
2017-08-07T23:29:11.221Z,98869.58
2017-08-07T23:31:44.518Z,98823.55
2017-08-07T23:34:17.112Z,98868.45
2017-08-07T23:36:49.889Z,98866.17
2017-08-07T23:39:21.915Z,98863.64
2017-08-07T23:41:57.037Z,98863.74
2017-08-07T23:44:30.188Z,98855.53
2017-08-07T23:47:03.464Z,98853.58
2017-08-07T23:49:37.187Z,98852.48
2017-08-07T23:52:10.285Z,98854.44
2017-08-07T23:54:42.969Z,98847.98
2017-08-07T23:57:15.161Z,98834.75
2017-08-07T23:59:47.576Z,98841.20
